Time;durP1;ratioP1;P1;durP2;ratioP2;P2;SDS_P1;SDS_P2;PMS_P1;PMS_P2;Temp;Humidity;BMP_temperature;BMP_pressure;BME280_temperature;BME280_humidity;BME280_pressure;Samples;Min_cycle;Max_cycle;Signal;HPM_P1;HPM_P2
2022/03/28 00:01:13;;;;;;;30.23;17.97;;;;;;;;;;5053123;28;20199;-72
2022/03/28 00:03:41;;;;;;;37.20;19.07;;;;;;;;;;5049796;28;20652;-72
2022/03/28 00:06:10;;;;;;;32.10;17.87;;;;;;;;;;5032774;28;20690;-72
2022/03/28 00:08:38;;;;;;;34.60;20.07;;;;;;;;;;5039152;28;20253;-72
2022/03/28 00:11:08;;;;;;;36.57;20.40;;;;;;;;;;5051975;28;20224;-72
2022/03/28 00:13:37;;;;;;;38.57;22.17;;;;;;;;;;5052065;28;20260;-72
2022/03/28 00:16:06;;;;;;;37.97;20.90;;;;;;;;;;5056044;28;20223;-72
2022/03/28 00:18:35;;;;;;;49.07;22.77;;;;;;;;;;5055516;28;20204;-72
2022/03/28 00:21:04;;;;;;;44.73;24.07;;;;;;;;;;5050748;28;20220;-72
2022/03/28 00:23:32;;;;;;;49.83;23.53;;;;;;;;;;5055844;28;20204;-72
2022/03/28 00:26:03;;;;;;;40.67;22.67;;;;;;;;;;5055844;28;20199;-72
2022/03/28 00:28:33;;;;;;;44.87;22.10;;;;;;;;;;5054932;28;20201;-72
2022/03/28 00:31:01;;;;;;;52.17;21.07;;;;;;;;;;5055056;28;20250;-72
2022/03/28 00:33:30;;;;;;;45.53;20.00;;;;;;;;;;5051017;28;20201;-72
2022/03/28 00:35:58;;;;;;;33.57;19.80;;;;;;;;;;5052258;28;20219;-72
2022/03/28 00:38:27;;;;;;;40.70;19.53;;;;;;;;;;5054107;28;20208;-72
2022/03/28 00:40:56;;;;;;;48.57;19.90;;;;;;;;;;5055650;28;20250;-72
2022/03/28 00:43:24;;;;;;;30.33;15.10;;;;;;;;;;5054381;28;20285;-72
2022/03/28 00:45:54;;;;;;;74.10;16.83;;;;;;;;;;5036336;28;20636;-72
2022/03/28 00:48:26;;;;;;;30.23;14.53;;;;;;;;;;5037469;28;20223;-72
2022/03/28 00:50:56;;;;;;;35.70;16.50;;;;;;;;;;5055078;28;20226;-72
2022/03/28 00:53:25;;;;;;;28.23;16.37;;;;;;;;;;5054231;28;20207;-72
2022/03/28 00:55:54;;;;;;;22.73;15.47;;;;;;;;;;5043397;28;20238;-72
2022/03/28 00:58:23;;;;;;;19.87;14.77;;;;;;;;;;5055175;28;20219;-72
2022/03/28 01:00:51;;;;;;;28.83;16.50;;;;;;;;;;5054882;28;20236;-72
2022/03/28 01:03:21;;;;;;;35.23;15.87;;;;;;;;;;5055663;28;20207;-72
2022/03/28 01:05:50;;;;;;;25.00;15.57;;;;;;;;;;5053655;28;20250;-72
2022/03/28 01:08:19;;;;;;;59.27;16.83;;;;;;;;;;5055401;28;20231;-71
2022/03/28 01:10:48;;;;;;;32.10;14.63;;;;;;;;;;5053338;28;20694;-72
2022/03/28 01:13:17;;;;;;;52.53;14.77;;;;;;;;;;5055602;28;20736;-72
2022/03/28 01:15:46;;;;;;;31.20;14.97;;;;;;;;;;5052996;28;20203;-72
2022/03/28 01:18:15;;;;;;;29.43;14.93;;;;;;;;;;5055029;28;20223;-72
2022/03/28 01:20:44;;;;;;;31.37;14.67;;;;;;;;;;5053967;28;20195;-72
2022/03/28 01:23:14;;;;;;;127.70;16.03;;;;;;;;;;5055111;28;20211;-72
2022/03/28 01:25:44;;;;;;;66.73;16.57;;;;;;;;;;5052862;28;20226;-72
2022/03/28 01:28:13;;;;;;;36.07;15.30;;;;;;;;;;5055151;28;20230;-72
2022/03/28 01:30:41;;;;;;;127.33;17.47;;;;;;;;;;5053512;28;20257;-72
2022/03/28 01:33:09;;;;;;;35.20;16.63;;;;;;;;;;5053336;28;20229;-72
2022/03/28 01:35:39;;;;;;;31.03;15.47;;;;;;;;;;5039845;28;20268;-72
2022/03/28 01:38:07;;;;;;;58.70;16.27;;;;;;;;;;5054540;28;20635;-72
2022/03/28 01:40:38;;;;;;;115.03;17.93;;;;;;;;;;5052331;28;20191;-72
2022/03/28 01:43:06;;;;;;;92.23;18.60;;;;;;;;;;5055446;28;20276;-72
2022/03/28 01:45:35;;;;;;;67.93;18.93;;;;;;;;;;5053474;28;20199;-72
2022/03/28 01:48:03;;;;;;;20.93;14.90;;;;;;;;;;5055091;28;20741;-72
2022/03/28 01:50:32;;;;;;;54.70;17.53;;;;;;;;;;5054474;28;20223;-72
2022/03/28 01:53:00;;;;;;;88.93;17.60;;;;;;;;;;5053688;28;20272;-72
2022/03/28 01:55:29;;;;;;;104.93;18.30;;;;;;;;;;5054444;28;20200;-72
2022/03/28 01:57:59;;;;;;;37.67;16.20;;;;;;;;;;5054926;28;20277;-72
2022/03/28 02:00:31;;;;;;;49.17;15.43;;;;;;;;;;5052164;28;20555;-72
2022/03/28 02:03:00;;;;;;;94.87;16.80;;;;;;;;;;5043775;28;20597;-72
2022/03/28 02:05:28;;;;;;;46.53;15.30;;;;;;;;;;5051446;28;20409;-72
2022/03/28 02:07:58;;;;;;;47.37;14.67;;;;;;;;;;5054049;28;20228;-72
2022/03/28 02:10:26;;;;;;;39.67;15.07;;;;;;;;;;5054010;28;20210;-72
2022/03/28 02:12:55;;;;;;;38.67;14.83;;;;;;;;;;5054401;28;20199;-72
2022/03/28 02:15:24;;;;;;;28.17;16.30;;;;;;;;;;5053042;28;20658;-72
2022/03/28 02:17:53;;;;;;;26.87;16.03;;;;;;;;;;5053610;28;20227;-72
2022/03/28 02:20:21;;;;;;;25.93;15.30;;;;;;;;;;5052862;28;20736;-72
2022/03/28 02:22:50;;;;;;;30.97;15.07;;;;;;;;;;5052616;28;20544;-72
2022/03/28 02:25:19;;;;;;;29.33;16.23;;;;;;;;;;5053401;28;20674;-72
2022/03/28 02:27:48;;;;;;;31.77;14.90;;;;;;;;;;5052899;28;20228;-72
2022/03/28 02:30:16;;;;;;;22.83;14.30;;;;;;;;;;5054388;28;20203;-72
2022/03/28 02:32:46;;;;;;;25.97;14.70;;;;;;;;;;5053436;28;20677;-72
2022/03/28 02:35:14;;;;;;;20.90;14.00;;;;;;;;;;5053129;28;20681;-72
2022/03/28 02:37:43;;;;;;;26.30;13.70;;;;;;;;;;5050745;28;20627;-71
2022/03/28 02:40:12;;;;;;;19.40;13.87;;;;;;;;;;5053405;28;20208;-72
2022/03/28 02:42:41;;;;;;;22.80;13.83;;;;;;;;;;5052108;28;20202;-72
2022/03/28 02:45:10;;;;;;;30.53;13.20;;;;;;;;;;5052202;28;20234;-72
2022/03/28 02:47:38;;;;;;;27.67;13.20;;;;;;;;;;5053435;28;20226;-72
2022/03/28 02:50:09;;;;;;;23.30;14.23;;;;;;;;;;5052179;28;20204;-72
2022/03/28 02:52:38;;;;;;;30.70;14.80;;;;;;;;;;5052156;28;20277;-72
2022/03/28 02:55:07;;;;;;;21.93;13.27;;;;;;;;;;5052163;28;20259;-72
2022/03/28 02:57:36;;;;;;;26.33;14.07;;;;;;;;;;5033759;28;20234;-72
2022/03/28 03:00:07;;;;;;;31.60;14.90;;;;;;;;;;5043108;28;20612;-72
2022/03/28 03:02:36;;;;;;;31.30;15.33;;;;;;;;;;5052808;28;20191;-72
2022/03/28 03:05:06;;;;;;;27.67;15.63;;;;;;;;;;5053391;28;20213;-72
2022/03/28 03:07:36;;;;;;;25.20;14.83;;;;;;;;;;5051054;28;20606;-72
2022/03/28 03:10:04;;;;;;;32.43;16.80;;;;;;;;;;5050750;28;20248;-72
2022/03/28 03:12:33;;;;;;;28.43;16.33;;;;;;;;;;5053091;28;20215;-72
2022/03/28 03:15:01;;;;;;;39.67;16.70;;;;;;;;;;5052480;28;20210;-72
2022/03/28 03:17:30;;;;;;;28.33;16.30;;;;;;;;;;5051300;28;20730;-72
2022/03/28 03:19:58;;;;;;;31.57;16.20;;;;;;;;;;5053069;28;20207;-72
2022/03/28 03:22:27;;;;;;;45.10;17.07;;;;;;;;;;5053101;28;20733;-71
2022/03/28 03:24:57;;;;;;;47.80;16.83;;;;;;;;;;5052768;28;20214;-71
2022/03/28 03:27:25;;;;;;;56.10;16.77;;;;;;;;;;5052652;28;20797;-72
2022/03/28 03:29:53;;;;;;;75.77;18.07;;;;;;;;;;5053145;28;20730;-72
2022/03/28 03:32:22;;;;;;;50.10;16.90;;;;;;;;;;5050865;28;20589;-72
2022/03/28 03:34:51;;;;;;;68.37;17.57;;;;;;;;;;5051479;28;20276;-72
2022/03/28 03:37:20;;;;;;;124.30;19.17;;;;;;;;;;5050632;28;20232;-71
2022/03/28 03:39:48;;;;;;;40.70;15.40;;;;;;;;;;5051726;28;20263;-72
2022/03/28 03:42:18;;;;;;;64.90;16.57;;;;;;;;;;5051610;28;20203;-72
2022/03/28 03:44:46;;;;;;;50.87;15.93;;;;;;;;;;5052998;28;20260;-71
2022/03/28 03:47:15;;;;;;;54.13;16.57;;;;;;;;;;5050845;28;20633;-72
2022/03/28 03:49:43;;;;;;;68.00;16.97;;;;;;;;;;5051591;28;20214;-71
2022/03/28 03:52:11;;;;;;;46.37;15.57;;;;;;;;;;5053043;28;20226;-71
2022/03/28 03:54:40;;;;;;;66.40;16.80;;;;;;;;;;5039738;28;20211;-71
2022/03/28 03:57:08;;;;;;;50.80;15.77;;;;;;;;;;5051012;28;20223;-71
2022/03/28 03:59:38;;;;;;;63.17;16.13;;;;;;;;;;5051966;28;20206;-71
2022/03/28 04:02:07;;;;;;;35.23;15.60;;;;;;;;;;5048652;28;20260;-72
2022/03/28 04:04:35;;;;;;;41.70;16.43;;;;;;;;;;5051897;28;20202;-72
2022/03/28 04:07:04;;;;;;;66.60;16.87;;;;;;;;;;5051557;28;20227;-71
2022/03/28 04:09:32;;;;;;;53.53;15.87;;;;;;;;;;5051273;28;20263;-71
2022/03/28 04:12:00;;;;;;;46.07;16.27;;;;;;;;;;5052298;28;20225;-72
2022/03/28 04:14:29;;;;;;;63.97;18.00;;;;;;;;;;5050994;28;20206;-71
2022/03/28 04:16:59;;;;;;;83.53;18.03;;;;;;;;;;5051476;28;20230;-71
2022/03/28 04:19:27;;;;;;;51.23;15.77;;;;;;;;;;5050985;28;20634;-72
2022/03/28 04:21:56;;;;;;;31.27;16.53;;;;;;;;;;5051618;28;20198;-71
2022/03/28 04:24:24;;;;;;;47.63;17.37;;;;;;;;;;5049589;28;20597;-71
2022/03/28 04:26:53;;;;;;;54.40;16.83;;;;;;;;;;5051639;28;20227;-71
2022/03/28 04:29:21;;;;;;;86.07;18.37;;;;;;;;;;5050126;28;20206;-72
2022/03/28 04:31:49;;;;;;;63.50;17.87;;;;;;;;;;5051236;28;20210;-71
2022/03/28 04:34:19;;;;;;;40.10;16.47;;;;;;;;;;5049506;28;20214;-72
2022/03/28 04:36:47;;;;;;;57.30;17.07;;;;;;;;;;5050771;28;20763;-71
2022/03/28 04:39:16;;;;;;;28.93;16.40;;;;;;;;;;5051807;28;20203;-71
2022/03/28 04:41:44;;;;;;;47.83;17.07;;;;;;;;;;5050917;28;20261;-72
2022/03/28 04:44:13;;;;;;;30.33;15.80;;;;;;;;;;5051311;28;20236;-71
2022/03/28 04:46:41;;;;;;;37.13;15.00;;;;;;;;;;5050365;28;20656;-71
2022/03/28 04:49:13;;;;;;;40.67;15.77;;;;;;;;;;5052163;28;20662;-71
2022/03/28 04:51:43;;;;;;;58.27;17.23;;;;;;;;;;5049709;28;20210;-72
2022/03/28 04:54:11;;;;;;;44.67;16.13;;;;;;;;;;5051592;28;20658;-72
2022/03/28 04:56:39;;;;;;;47.87;15.97;;;;;;;;;;5049648;28;20227;-72
2022/03/28 04:59:08;;;;;;;40.83;16.37;;;;;;;;;;5048433;28;20205;-72
2022/03/28 05:01:36;;;;;;;43.17;16.07;;;;;;;;;;5050851;28;20263;-72
2022/03/28 05:04:05;;;;;;;49.97;15.50;;;;;;;;;;5054549;28;20225;-71
2022/03/28 05:06:33;;;;;;;49.67;16.03;;;;;;;;;;5055898;28;20685;-72
2022/03/28 05:09:03;;;;;;;44.07;15.37;;;;;;;;;;5044596;28;20279;-72
2022/03/28 05:11:31;;;;;;;40.57;14.17;;;;;;;;;;5054675;28;20248;-72
2022/03/28 05:14:02;;;;;;;49.80;16.37;;;;;;;;;;5054546;28;20301;-71
2022/03/28 05:16:31;;;;;;;47.63;15.67;;;;;;;;;;5054581;28;20222;-72
2022/03/28 05:18:59;;;;;;;44.27;16.53;;;;;;;;;;5051978;28;20221;-72
2022/03/28 05:21:28;;;;;;;43.20;15.97;;;;;;;;;;5052379;28;20602;-71
2022/03/28 05:23:56;;;;;;;46.63;16.23;;;;;;;;;;5051144;28;20252;-72
2022/03/28 05:26:26;;;;;;;74.77;18.00;;;;;;;;;;5054312;28;20306;-71
2022/03/28 05:28:55;;;;;;;42.47;16.83;;;;;;;;;;5055467;28;20279;-72
2022/03/28 05:31:23;;;;;;;42.57;16.83;;;;;;;;;;5054951;28;20205;-71
2022/03/28 05:33:52;;;;;;;70.53;18.07;;;;;;;;;;5052435;28;20226;-72
2022/03/28 05:36:21;;;;;;;83.83;18.37;;;;;;;;;;5053532;28;20199;-72
2022/03/28 05:38:49;;;;;;;54.10;17.73;;;;;;;;;;5051958;28;20242;-71
2022/03/28 05:41:17;;;;;;;47.03;17.97;;;;;;;;;;5050552;28;20206;-72
2022/03/28 05:43:47;;;;;;;27.97;17.70;;;;;;;;;;5044148;28;20245;-72
2022/03/28 05:46:18;;;;;;;62.70;16.30;;;;;;;;;;5055106;28;20210;-72
2022/03/28 05:48:53;;;;;;;53.17;17.73;;;;;;;;;;5054739;28;20201;-72
2022/03/28 05:51:21;;;;;;;64.80;17.53;;;;;;;;;;5055057;28;20203;-72
2022/03/28 05:53:50;;;;;;;57.97;16.73;;;;;;;;;;5054625;28;20226;-72
2022/03/28 05:56:19;;;;;;;37.13;16.77;;;;;;;;;;5054401;28;20206;-72
2022/03/28 05:58:48;;;;;;;62.73;15.33;;;;;;;;;;5054691;28;20259;-71
2022/03/28 06:01:17;;;;;;;47.00;15.57;;;;;;;;;;5055052;28;20203;-72
2022/03/28 06:03:46;;;;;;;38.60;15.67;;;;;;;;;;5054094;28;20217;-72
2022/03/28 06:06:15;;;;;;;46.10;15.97;;;;;;;;;;5054206;28;20229;-72
2022/03/28 06:08:43;;;;;;;30.30;13.53;;;;;;;;;;5054509;28;20207;-72
2022/03/28 06:11:11;;;;;;;45.47;14.13;;;;;;;;;;5054360;28;20325;-72
2022/03/28 06:13:42;;;;;;;30.73;13.93;;;;;;;;;;5054373;28;20686;-72
2022/03/28 06:16:11;;;;;;;57.40;14.70;;;;;;;;;;5054198;28;20207;-72
2022/03/28 06:18:42;;;;;;;51.60;14.60;;;;;;;;;;5053043;28;20203;-72
2022/03/28 06:21:11;;;;;;;43.63;14.40;;;;;;;;;;5054244;28;20203;-72
2022/03/28 06:23:39;;;;;;;37.23;15.40;;;;;;;;;;5054400;28;20248;-72
2022/03/28 06:26:08;;;;;;;46.60;13.87;;;;;;;;;;5053486;28;20724;-72
2022/03/28 06:28:36;;;;;;;42.37;12.80;;;;;;;;;;5053436;28;20215;-72
2022/03/28 06:31:04;;;;;;;23.83;12.47;;;;;;;;;;5054426;28;20261;-72
2022/03/28 06:33:34;;;;;;;36.30;14.00;;;;;;;;;;5053840;28;20237;-72
2022/03/28 06:36:03;;;;;;;42.13;14.77;;;;;;;;;;5053845;28;20736;-72
2022/03/28 06:38:31;;;;;;;33.07;13.10;;;;;;;;;;5054098;28;20238;-72
2022/03/28 06:41:00;;;;;;;43.80;15.40;;;;;;;;;;5054359;28;20211;-72
2022/03/28 06:43:28;;;;;;;44.20;15.50;;;;;;;;;;5053995;28;20617;-72
2022/03/28 06:45:57;;;;;;;41.80;14.30;;;;;;;;;;5054066;28;20218;-72
2022/03/28 06:48:26;;;;;;;71.50;14.70;;;;;;;;;;5053817;28;20311;-72
2022/03/28 06:51:04;;;;;;;51.17;13.73;;;;;;;;;;5053901;28;20207;-72
2022/03/28 06:53:32;;;;;;;36.90;13.73;;;;;;;;;;5053724;28;20234;-72
2022/03/28 06:56:01;;;;;;;42.27;13.37;;;;;;;;;;5054131;28;20255;-72
2022/03/28 06:58:30;;;;;;;72.13;13.60;;;;;;;;;;5053813;28;20199;-72
2022/03/28 07:00:58;;;;;;;40.17;13.53;;;;;;;;;;5053568;28;20207;-72
2022/03/28 07:03:28;;;;;;;50.77;13.50;;;;;;;;;;5053411;28;20236;-72
2022/03/28 07:05:57;;;;;;;32.37;12.63;;;;;;;;;;5053396;28;20212;-72
2022/03/28 07:08:27;;;;;;;49.33;13.50;;;;;;;;;;5053206;28;20616;-71
2022/03/28 07:10:55;;;;;;;49.00;14.00;;;;;;;;;;5053589;28;20204;-72
2022/03/28 07:13:24;;;;;;;50.63;13.10;;;;;;;;;;5053397;28;20688;-72
2022/03/28 07:15:52;;;;;;;31.33;13.37;;;;;;;;;;5053347;28;20202;-72
2022/03/28 07:18:21;;;;;;;29.37;12.83;;;;;;;;;;5053007;28;20566;-72
2022/03/28 07:20:51;;;;;;;30.33;12.67;;;;;;;;;;5053298;28;20257;-71
2022/03/28 07:23:19;;;;;;;29.47;12.70;;;;;;;;;;5052812;28;20248;-72
2022/03/28 07:25:49;;;;;;;40.23;13.00;;;;;;;;;;5053215;28;20217;-72
2022/03/28 07:28:18;;;;;;;33.80;12.80;;;;;;;;;;5052939;28;20695;-71
2022/03/28 07:30:47;;;;;;;28.13;13.27;;;;;;;;;;5053109;28;20675;-72
2022/03/28 07:33:15;;;;;;;40.03;13.10;;;;;;;;;;5050756;28;20295;-72
2022/03/28 07:35:45;;;;;;;25.90;13.37;;;;;;;;;;5036299;28;20224;-72
2022/03/28 07:38:13;;;;;;;38.57;13.03;;;;;;;;;;5045597;28;20234;-72
2022/03/28 07:40:45;;;;;;;43.63;13.37;;;;;;;;;;5053030;28;20597;-72
2022/03/28 07:43:15;;;;;;;33.77;13.07;;;;;;;;;;5052694;28;20206;-72
2022/03/28 07:45:44;;;;;;;42.37;14.13;;;;;;;;;;5053195;28;20573;-72
2022/03/28 07:48:13;;;;;;;31.67;14.17;;;;;;;;;;5052886;28;20249;-72
2022/03/28 07:50:41;;;;;;;33.00;13.63;;;;;;;;;;5052937;28;20238;-72
2022/03/28 07:53:10;;;;;;;42.93;15.50;;;;;;;;;;5052877;28;20209;-72
2022/03/28 07:55:39;;;;;;;33.77;15.03;;;;;;;;;;5052664;28;20223;-72
2022/03/28 07:58:07;;;;;;;41.73;14.83;;;;;;;;;;5052414;28;20230;-72
2022/03/28 08:00:39;;;;;;;39.23;15.03;;;;;;;;;;5053093;28;20205;-72
2022/03/28 08:03:08;;;;;;;38.40;15.27;;;;;;;;;;5052707;28;20211;-72
2022/03/28 08:05:37;;;;;;;42.80;14.40;;;;;;;;;;5052540;28;20220;-72
2022/03/28 08:08:05;;;;;;;35.87;14.13;;;;;;;;;;5052674;28;20623;-72
2022/03/28 08:10:34;;;;;;;32.07;16.27;;;;;;;;;;5052634;28;20702;-72
2022/03/28 08:13:02;;;;;;;38.33;17.20;;;;;;;;;;5052826;28;20209;-72
2022/03/28 08:15:31;;;;;;;32.70;15.77;;;;;;;;;;5052397;28;20222;-72
2022/03/28 08:18:01;;;;;;;27.30;14.93;;;;;;;;;;5052711;28;20566;-72
2022/03/28 08:20:30;;;;;;;37.63;18.27;;;;;;;;;;5052415;28;20213;-72
2022/03/28 08:23:00;;;;;;;40.27;19.63;;;;;;;;;;5052909;28;20209;-72
2022/03/28 08:25:30;;;;;;;31.63;17.67;;;;;;;;;;5052379;28;20247;-72
2022/03/28 08:27:59;;;;;;;43.30;17.80;;;;;;;;;;5052763;28;20221;-72
2022/03/28 08:30:30;;;;;;;44.50;16.17;;;;;;;;;;5052541;28;20213;-72
2022/03/28 08:32:58;;;;;;;27.07;15.20;;;;;;;;;;5052487;28;20208;-72
2022/03/28 08:35:28;;;;;;;28.47;14.70;;;;;;;;;;5051950;28;20223;-72
2022/03/28 08:37:56;;;;;;;30.63;15.90;;;;;;;;;;5056642;28;20232;-72
2022/03/28 08:40:26;;;;;;;33.63;16.90;;;;;;;;;;5056385;28;20297;-72
2022/03/28 08:42:55;;;;;;;34.50;17.37;;;;;;;;;;5056173;28;20628;-72
2022/03/28 08:45:23;;;;;;;34.23;16.57;;;;;;;;;;5055810;28;20209;-72
2022/03/28 08:47:52;;;;;;;35.87;17.00;;;;;;;;;;5056491;28;20226;-72
2022/03/28 08:50:41;;;;;;;33.43;17.10;;;;;;;;;;5056407;28;20194;-73
2022/03/28 08:53:09;;;;;;;30.10;15.73;;;;;;;;;;5055892;28;20206;-72
2022/03/28 08:55:40;;;;;;;30.50;17.47;;;;;;;;;;5055824;28;20263;-72
2022/03/28 08:58:08;;;;;;;34.50;17.13;;;;;;;;;;5055525;28;20219;-72
2022/03/28 09:00:36;;;;;;;33.83;18.27;;;;;;;;;;5055275;28;20200;-72
2022/03/28 09:03:05;;;;;;;33.73;16.60;;;;;;;;;;5055790;28;20225;-72
2022/03/28 09:05:35;;;;;;;34.43;17.77;;;;;;;;;;5055768;28;20213;-72
2022/03/28 09:08:05;;;;;;;33.90;16.93;;;;;;;;;;5055840;28;20226;-72
2022/03/28 09:10:39;;;;;;;29.77;16.27;;;;;;;;;;5055322;28;20209;-73
2022/03/28 09:13:08;;;;;;;31.80;15.90;;;;;;;;;;5055746;28;20199;-72
2022/03/28 09:15:43;;;;;;;28.10;14.00;;;;;;;;;;5055624;28;20230;-72
2022/03/28 09:18:20;;;;;;;32.03;15.37;;;;;;;;;;5055797;28;20234;-72
2022/03/28 09:20:49;;;;;;;28.53;15.57;;;;;;;;;;5055277;28;20207;-72
2022/03/28 09:23:32;;;;;;;27.27;14.60;;;;;;;;;;5055647;28;20260;-72
2022/03/28 09:26:01;;;;;;;24.10;13.77;;;;;;;;;;5055632;28;20252;-72
2022/03/28 09:28:47;;;;;;;24.50;12.33;;;;;;;;;;5055496;28;20242;-72
2022/03/28 09:31:17;;;;;;;23.67;12.47;;;;;;;;;;5055145;28;20242;-72
2022/03/28 09:33:59;;;;;;;24.50;13.17;;;;;;;;;;5055323;28;20207;-72
2022/03/28 09:36:41;;;;;;;21.57;12.03;;;;;;;;;;5054229;28;20226;-72
2022/03/28 09:39:11;;;;;;;27.87;15.97;;;;;;;;;;5054338;28;20666;-72
2022/03/28 09:41:40;;;;;;;18.73;11.17;;;;;;;;;;5054634;28;20203;-72
2022/03/28 09:44:08;;;;;;;18.33;10.37;;;;;;;;;;5055224;28;20707;-72
2022/03/28 09:46:37;;;;;;;18.07;10.63;;;;;;;;;;5053966;28;20220;-72
2022/03/28 09:49:08;;;;;;;20.23;10.93;;;;;;;;;;5055016;28;20297;-72
2022/03/28 09:51:37;;;;;;;19.47;10.80;;;;;;;;;;5054526;28;20203;-72
2022/03/28 09:54:20;;;;;;;19.43;10.63;;;;;;;;;;5054926;28;20233;-72
2022/03/28 09:57:03;;;;;;;18.63;10.03;;;;;;;;;;5054844;28;20277;-72
2022/03/28 09:59:39;;;;;;;18.97;10.77;;;;;;;;;;5054626;28;20207;-72
2022/03/28 10:02:17;;;;;;;21.67;12.10;;;;;;;;;;5054711;28;20225;-72
2022/03/28 10:04:46;;;;;;;19.60;11.40;;;;;;;;;;5054394;28;20262;-72
2022/03/28 10:07:15;;;;;;;20.97;11.13;;;;;;;;;;5054881;28;20241;-72
2022/03/28 10:09:43;;;;;;;21.53;11.27;;;;;;;;;;5054924;28;20202;-72
2022/03/28 10:12:12;;;;;;;19.77;11.50;;;;;;;;;;5054917;28;20196;-72
2022/03/28 10:14:42;;;;;;;21.67;10.83;;;;;;;;;;5054328;28;20200;-72
2022/03/28 10:17:10;;;;;;;18.93;10.83;;;;;;;;;;5054593;28;20276;-72
2022/03/28 10:19:39;;;;;;;18.43;11.50;;;;;;;;;;5054604;28;20286;-72
2022/03/28 10:22:23;;;;;;;18.80;11.13;;;;;;;;;;5054261;28;20233;-72
2022/03/28 10:24:52;;;;;;;18.50;11.37;;;;;;;;;;5054389;28;20282;-72
2022/03/28 10:27:21;;;;;;;19.63;11.47;;;;;;;;;;5054431;28;20227;-72
2022/03/28 10:29:52;;;;;;;18.73;10.87;;;;;;;;;;5054406;28;20659;-72
2022/03/28 10:32:21;;;;;;;19.77;11.50;;;;;;;;;;5054277;28;20195;-72
2022/03/28 10:34:52;;;;;;;18.13;11.20;;;;;;;;;;5053829;28;20292;-72
2022/03/28 10:37:28;;;;;;;18.47;11.40;;;;;;;;;;5054267;28;20665;-72
2022/03/28 10:40:27;;;;;;;37.23;13.30;;;;;;;;;;5054244;28;20198;-72
2022/03/28 10:43:02;;;;;;;17.63;11.40;;;;;;;;;;4953727;29;20198;-72
2022/03/28 10:45:35;;;;;;;20.93;11.37;;;;;;;;;;5036926;28;20233;-72
2022/03/28 10:48:04;;;;;;;23.53;12.73;;;;;;;;;;5054003;28;20285;-72
2022/03/28 10:50:35;;;;;;;25.73;14.67;;;;;;;;;;5053725;28;20260;-72
2022/03/28 10:53:08;;;;;;;23.30;14.40;;;;;;;;;;5053888;28;20609;-72
2022/03/28 10:55:40;;;;;;;24.93;12.70;;;;;;;;;;5053796;28;20218;-72
2022/03/28 10:58:12;;;;;;;25.27;13.27;;;;;;;;;;5053274;28;20717;-72
2022/03/28 11:01:02;;;;;;;20.57;12.33;;;;;;;;;;5053749;28;20662;-73
2022/03/28 11:03:37;;;;;;;28.40;13.77;;;;;;;;;;5053053;28;20567;-72
2022/03/28 11:06:06;;;;;;;29.90;14.87;;;;;;;;;;5053574;28;20226;-72
2022/03/28 11:08:39;;;;;;;30.40;16.37;;;;;;;;;;5053835;28;20207;-72
2022/03/28 11:11:18;;;;;;;30.90;15.73;;;;;;;;;;5053623;28;20214;-72
2022/03/28 11:13:59;;;;;;;29.90;16.70;;;;;;;;;;5053026;28;20655;-73
2022/03/28 11:16:42;;;;;;;35.33;18.17;;;;;;;;;;5053398;28;20272;-72
2022/03/28 11:19:21;;;;;;;32.17;17.60;;;;;;;;;;5053631;28;20203;-72
2022/03/28 11:22:00;;;;;;;38.37;19.43;;;;;;;;;;5053442;28;20206;-72
2022/03/28 11:24:52;;;;;;;31.77;17.60;;;;;;;;;;5052924;28;20252;-72
2022/03/28 11:27:21;;;;;;;38.97;19.13;;;;;;;;;;5053333;28;20253;-72
2022/03/28 11:29:50;;;;;;;35.77;19.43;;;;;;;;;;5053215;28;20203;-72
2022/03/28 11:32:20;;;;;;;34.27;19.10;;;;;;;;;;5053204;28;20210;-72
2022/03/28 11:34:53;;;;;;;33.97;19.63;;;;;;;;;;5052828;28;20214;-72
2022/03/28 11:37:23;;;;;;;36.67;20.47;;;;;;;;;;5053048;28;20235;-72
2022/03/28 11:39:52;;;;;;;35.23;19.90;;;;;;;;;;5053082;28;20662;-72
2022/03/28 11:42:22;;;;;;;33.03;18.73;;;;;;;;;;5052787;28;20207;-72
2022/03/28 11:44:50;;;;;;;31.03;18.60;;;;;;;;;;5052902;28;20257;-72
2022/03/28 11:47:20;;;;;;;27.47;16.93;;;;;;;;;;5053048;28;20220;-72
2022/03/28 11:49:52;;;;;;;26.20;16.97;;;;;;;;;;5052803;28;20662;-72
2022/03/28 11:52:21;;;;;;;25.97;15.47;;;;;;;;;;5052880;28;20210;-72
2022/03/28 11:54:50;;;;;;;25.13;14.27;;;;;;;;;;5032914;28;20215;-72
2022/03/28 12:00:12;;;;;;;21.03;13.27;;;;;;;;;;5033058;28;20257;-72
2022/03/28 12:02:48;;;;;;;20.30;13.20;;;;;;;;;;5040080;28;20341;-72
2022/03/28 12:05:30;;;;;;;20.63;13.20;;;;;;;;;;5052531;28;20577;-72
2022/03/28 12:08:02;;;;;;;20.63;12.97;;;;;;;;;;5048475;28;20225;-72
2022/03/28 12:10:34;;;;;;;22.17;12.83;;;;;;;;;;5048979;28;20206;-71
2022/03/28 12:13:03;;;;;;;19.07;13.40;;;;;;;;;;5054139;28;20226;-72
2022/03/28 12:15:34;;;;;;;21.73;14.00;;;;;;;;;;5053154;28;20626;-72
2022/03/28 12:18:05;;;;;;;19.73;13.57;;;;;;;;;;5053997;28;20227;-72
2022/03/28 12:20:38;;;;;;;20.43;13.97;;;;;;;;;;5056480;28;20207;-72
2022/03/28 12:23:07;;;;;;;20.63;14.20;;;;;;;;;;5047784;28;20214;-72
2022/03/28 12:25:37;;;;;;;22.07;14.47;;;;;;;;;;5046227;28;20201;-72
2022/03/28 12:28:07;;;;;;;19.67;14.20;;;;;;;;;;5053955;28;20227;-73
2022/03/28 12:30:37;;;;;;;18.47;13.60;;;;;;;;;;5051840;28;20207;-72
2022/03/28 12:33:14;;;;;;;19.93;14.03;;;;;;;;;;5056953;28;20260;-72
2022/03/28 12:35:44;;;;;;;20.10;14.07;;;;;;;;;;5055862;28;20228;-72
2022/03/28 12:38:18;;;;;;;18.37;13.40;;;;;;;;;;5055128;28;20218;-72
2022/03/28 12:40:46;;;;;;;19.43;13.43;;;;;;;;;;5054430;28;20198;-72
2022/03/28 12:43:17;;;;;;;21.00;14.07;;;;;;;;;;5055048;28;20201;-72
2022/03/28 12:45:45;;;;;;;24.37;13.23;;;;;;;;;;5055019;28;20203;-72
2022/03/28 12:48:15;;;;;;;22.73;14.60;;;;;;;;;;5056264;28;20219;-72
2022/03/28 12:50:53;;;;;;;18.43;13.50;;;;;;;;;;5055923;28;20293;-72
2022/03/28 12:53:24;;;;;;;18.63;12.87;;;;;;;;;;5053059;28;20560;-72
2022/03/28 12:55:52;;;;;;;17.00;13.50;;;;;;;;;;5053874;28;20207;-72
2022/03/28 12:58:31;;;;;;;18.20;13.43;;;;;;;;;;5052971;28;20226;-72
2022/03/28 13:01:04;;;;;;;16.10;12.80;;;;;;;;;;5052888;28;20724;-72
2022/03/28 13:03:34;;;;;;;16.87;12.70;;;;;;;;;;5055376;28;20199;-72
2022/03/28 13:06:04;;;;;;;19.10;12.97;;;;;;;;;;5055274;28;20210;-72
2022/03/28 13:08:36;;;;;;;17.13;12.60;;;;;;;;;;5056045;28;20203;-72
2022/03/28 13:11:15;;;;;;;16.87;12.20;;;;;;;;;;5055984;28;20213;-72
2022/03/28 13:13:44;;;;;;;18.97;13.20;;;;;;;;;;5055543;28;20199;-72
2022/03/28 13:16:20;;;;;;;18.03;13.63;;;;;;;;;;5054768;28;20207;-71
2022/03/28 13:19:00;;;;;;;18.20;14.17;;;;;;;;;;5055900;28;20240;-72
2022/03/28 13:21:32;;;;;;;17.27;12.37;;;;;;;;;;5054199;28;20206;-72
2022/03/28 13:24:05;;;;;;;17.50;12.40;;;;;;;;;;5055271;28;20210;-72
2022/03/28 13:26:40;;;;;;;17.33;12.20;;;;;;;;;;5053621;28;20717;-72
2022/03/28 13:29:16;;;;;;;17.77;13.07;;;;;;;;;;5052618;28;20198;-71
2022/03/28 13:31:44;;;;;;;15.20;12.10;;;;;;;;;;5040457;28;20198;-72
2022/03/28 13:34:15;;;;;;;17.40;13.30;;;;;;;;;;5054042;28;20604;-72
2022/03/28 13:36:43;;;;;;;14.43;12.57;;;;;;;;;;5053982;28;20595;-72
2022/03/28 13:39:12;;;;;;;16.50;12.97;;;;;;;;;;5050734;28;20663;-72
2022/03/28 13:41:40;;;;;;;16.17;12.03;;;;;;;;;;5051802;28;20728;-72
2022/03/28 13:44:09;;;;;;;18.33;13.60;;;;;;;;;;5053088;28;20204;-72
2022/03/28 13:46:38;;;;;;;14.60;12.77;;;;;;;;;;5052764;28;20600;-72
2022/03/28 13:49:07;;;;;;;15.50;12.93;;;;;;;;;;5050990;28;20286;-71
2022/03/28 13:51:37;;;;;;;13.93;12.43;;;;;;;;;;5054085;28;20654;-72
2022/03/28 13:54:06;;;;;;;13.60;11.63;;;;;;;;;;5054039;28;20203;-72
2022/03/28 13:56:36;;;;;;;16.93;12.87;;;;;;;;;;5051259;28;20218;-72
2022/03/28 13:59:06;;;;;;;17.93;13.00;;;;;;;;;;5051248;28;20662;-72
2022/03/28 14:01:34;;;;;;;15.37;12.43;;;;;;;;;;5054911;28;20264;-72
2022/03/28 14:04:08;;;;;;;16.53;12.37;;;;;;;;;;5052937;28;20207;-72
2022/03/28 14:06:38;;;;;;;16.17;12.70;;;;;;;;;;5052674;28;20215;-72
2022/03/28 14:09:08;;;;;;;14.67;12.40;;;;;;;;;;5049985;28;20195;-72
2022/03/28 14:11:37;;;;;;;14.73;12.87;;;;;;;;;;5043257;28;20210;-72
2022/03/28 14:14:05;;;;;;;15.53;12.90;;;;;;;;;;5049401;28;20258;-73
2022/03/28 14:16:37;;;;;;;17.30;14.80;;;;;;;;;;5045776;28;20741;-72
2022/03/28 14:19:21;;;;;;;18.53;14.93;;;;;;;;;;5043743;28;20226;-72
2022/03/28 14:21:51;;;;;;;17.53;14.93;;;;;;;;;;5052017;28;20207;-72
2022/03/28 14:24:20;;;;;;;16.87;14.80;;;;;;;;;;5052030;28;20207;-72
2022/03/28 14:26:48;;;;;;;17.93;13.93;;;;;;;;;;5053244;28;20231;-71
2022/03/28 14:29:18;;;;;;;17.13;14.80;;;;;;;;;;5049535;28;20191;-72
2022/03/28 14:31:47;;;;;;;17.23;15.03;;;;;;;;;;5051192;28;20203;-72
2022/03/28 14:34:16;;;;;;;15.70;13.97;;;;;;;;;;5049075;28;20211;-73
2022/03/28 14:36:45;;;;;;;15.00;12.30;;;;;;;;;;5047912;28;20274;-72